createdAt,value
2022-08-31T00:01:56.479Z,19.2
2022-08-31T00:07:37.082Z,19.1
2022-08-31T00:13:25.216Z,19
2022-08-31T00:19:10.767Z,18.9
2022-08-31T00:24:50.965Z,18.8
2022-08-31T00:30:31.098Z,18.8
2022-08-31T00:36:11.539Z,18.8
2022-08-31T00:41:51.628Z,18.8
2022-08-31T00:47:32.206Z,18.8
2022-08-31T00:53:14.742Z,18.8
2022-08-31T00:58:55.634Z,18.7
2022-08-31T01:04:36.023Z,18.7
2022-08-31T01:10:19.297Z,18.6
2022-08-31T01:15:59.531Z,18.5
2022-08-31T01:21:40.219Z,18.5
2022-08-31T01:27:20.419Z,18.5
2022-08-31T01:33:00.521Z,18.4
2022-08-31T01:38:40.838Z,18.4
2022-08-31T01:44:20.974Z,18.3
2022-08-31T01:50:00.972Z,17.5
2022-08-31T01:55:40.892Z,16.9
2022-08-31T02:01:32.596Z,16.5
2022-08-31T02:07:15.558Z,16.4
2022-08-31T02:12:55.786Z,16.2
2022-08-31T02:18:35.976Z,16.1
2022-08-31T02:24:16.053Z,16.1
2022-08-31T02:29:56.504Z,16
2022-08-31T02:35:36.708Z,15.9
2022-08-31T02:41:16.859Z,15.9
2022-08-31T02:46:56.891Z,15.8
2022-08-31T02:52:37.047Z,15.9
2022-08-31T02:58:20.774Z,15.9
2022-08-31T03:04:04.655Z,15.9
2022-08-31T03:09:44.840Z,15.8
2022-08-31T03:15:25.208Z,15.7
2022-08-31T03:21:05.449Z,15.7
2022-08-31T03:26:45.754Z,15.6
2022-08-31T03:32:25.808Z,15.7
2022-08-31T03:38:06.606Z,15.7
2022-08-31T03:51:17.938Z,15.9
2022-08-31T03:57:01.253Z,15.8
2022-08-31T04:02:45.256Z,15.9
2022-08-31T04:08:32.346Z,15.9
2022-08-31T04:14:18.637Z,16
2022-08-31T04:20:00.193Z,16
2022-08-31T04:25:54.954Z,15.9
2022-08-31T04:31:35.519Z,16.1
2022-08-31T04:37:19.427Z,16.1
2022-08-31T04:43:25.674Z,16.2
2022-08-31T04:49:06.201Z,16
2022-08-31T04:54:46.493Z,15.9
2022-08-31T05:00:26.634Z,16
2022-08-31T05:06:07.097Z,16
2022-08-31T05:11:47.423Z,16
2022-08-31T05:17:27.597Z,15.8
2022-08-31T05:23:07.486Z,15.8
2022-08-31T05:28:47.594Z,15.8
2022-08-31T05:34:27.794Z,15.9
2022-08-31T05:40:08.342Z,16
2022-08-31T05:45:50.327Z,15.9
2022-08-31T05:51:33.800Z,16
2022-08-31T05:57:24.537Z,16
2022-08-31T06:03:07.658Z,16.1
2022-08-31T06:08:47.925Z,16.1
2022-08-31T06:14:31.990Z,16.1
2022-08-31T06:20:16.974Z,16.3
2022-08-31T06:25:58.592Z,16.3
2022-08-31T06:31:42.153Z,16.3
2022-08-31T06:37:23.238Z,16.4
2022-08-31T06:43:03.520Z,16.5
2022-08-31T06:48:43.658Z,16.6
2022-08-31T06:54:31.053Z,16.6
2022-08-31T07:00:11.786Z,16.6
2022-08-31T07:05:52.135Z,16.6
2022-08-31T07:11:32.359Z,16.6
2022-08-31T07:17:12.990Z,16.5
2022-08-31T07:22:53.366Z,16.5
2022-08-31T07:28:33.429Z,16.6
2022-08-31T07:34:13.746Z,16.6
2022-08-31T07:39:54.252Z,16.6
2022-08-31T07:45:47.136Z,16.8
2022-08-31T07:51:28.776Z,16.8
2022-08-31T07:57:09.083Z,16.8
2022-08-31T08:02:53.013Z,16.9
2022-08-31T08:13:51.494Z,17.1
2022-08-31T08:19:34.346Z,17.2
2022-08-31T08:25:16.656Z,17.3
2022-08-31T08:31:07.362Z,17.5
2022-08-31T08:36:49.107Z,17.7
2022-08-31T08:42:29.478Z,17.9
2022-08-31T08:48:09.893Z,18.1
2022-08-31T08:53:50.521Z,18.4
2022-08-31T08:59:30.847Z,18.7
2022-08-31T09:05:11.061Z,19
2022-08-31T09:10:51.283Z,19.2
2022-08-31T09:16:38.794Z,19.5
2022-08-31T09:22:32.879Z,20.3
2022-08-31T09:28:13.155Z,20.7
2022-08-31T09:33:53.718Z,21.4
2022-08-31T09:39:36.883Z,22
2022-08-31T09:45:26.962Z,23
2022-08-31T09:51:09.886Z,23.6
2022-08-31T09:56:50.378Z,23.8
2022-08-31T10:02:30.473Z,23.8
2022-08-31T10:08:10.693Z,23.9
2022-08-31T10:14:00.133Z,24.1
2022-08-31T10:19:43.536Z,23.7
2022-08-31T10:25:30.135Z,23.8
2022-08-31T10:31:10.268Z,23.4
2022-08-31T10:36:50.779Z,23
2022-08-31T10:42:31.422Z,23.5
2022-08-31T10:48:11.614Z,23.5
2022-08-31T10:53:54.695Z,23.6
2022-08-31T10:59:47.192Z,24
2022-08-31T11:05:27.919Z,24.7
2022-08-31T11:11:09.338Z,25.1
2022-08-31T11:16:50.054Z,25.4
2022-08-31T11:22:38.553Z,25.7
2022-08-31T11:28:21.579Z,26.5
2022-08-31T11:34:15.844Z,26.9
2022-08-31T11:40:04.012Z,27.4
2022-08-31T11:45:47.460Z,28.6
2022-08-31T11:51:46.394Z,29.6
2022-08-31T11:57:32.208Z,30.8
2022-08-31T12:03:24.517Z,30.8
2022-08-31T12:09:09.655Z,31
2022-08-31T12:14:56.412Z,31.9
2022-08-31T12:20:46.395Z,30.9
2022-08-31T12:26:27.006Z,31.3
2022-08-31T12:32:10.678Z,32
2022-08-31T12:43:38.002Z,31.3
2022-08-31T12:49:18.933Z,31.3
2022-08-31T12:54:59.695Z,31.8
2022-08-31T13:00:39.948Z,32.3
2022-08-31T13:06:22.697Z,33
2022-08-31T13:12:06.109Z,32.7
2022-08-31T13:17:49.572Z,32.4
2022-08-31T13:23:29.917Z,32.7
2022-08-31T13:29:12.369Z,30.4
2022-08-31T13:34:55.550Z,31.2
2022-08-31T13:40:41.713Z,32.2
2022-08-31T13:46:30.170Z,31.2
2022-08-31T13:52:25.068Z,31.3
2022-08-31T13:58:24.626Z,32.1
2022-08-31T14:04:06.205Z,30.9
2022-08-31T14:09:52.371Z,29
2022-08-31T14:15:32.841Z,27.7
2022-08-31T14:21:23.358Z,27.3
2022-08-31T14:27:04.487Z,26.7
2022-08-31T14:32:44.377Z,26
2022-08-31T14:38:24.650Z,26
2022-08-31T14:44:05.236Z,25.8
2022-08-31T14:49:46.418Z,25.7
2022-08-31T14:55:26.702Z,25.3
2022-08-31T15:01:07.383Z,25
2022-08-31T15:06:48.512Z,25.1
2022-08-31T15:12:28.845Z,25
2022-08-31T15:18:09.038Z,24.9
2022-08-31T15:23:49.457Z,24.9
2022-08-31T15:29:29.870Z,24.7
2022-08-31T15:35:10.550Z,24.8
2022-08-31T15:40:54.234Z,24.9
2022-08-31T15:46:35.811Z,24.9
2022-08-31T15:58:33.011Z,24.9
2022-08-31T16:04:13.396Z,24.7
2022-08-31T16:15:12.943Z,24.5
2022-08-31T16:20:56.032Z,24.3
2022-08-31T16:26:38.787Z,24.1
2022-08-31T16:32:21.714Z,24.1
2022-08-31T16:38:02.388Z,24
2022-08-31T16:43:42.962Z,24
2022-08-31T16:49:23.286Z,23.9
2022-08-31T16:55:03.667Z,23.7
2022-08-31T17:00:43.913Z,23.6
2022-08-31T17:06:28.318Z,23.5
2022-08-31T17:12:10.979Z,23.4
2022-08-31T17:17:51.537Z,23.3
2022-08-31T17:23:31.880Z,23.1
2022-08-31T17:29:12.540Z,23
2022-08-31T17:34:55.076Z,22.8
2022-08-31T17:40:35.510Z,22.7
2022-08-31T17:46:16.662Z,22.5
2022-08-31T17:51:58.716Z,22.2
2022-08-31T17:57:42.060Z,22
2022-08-31T18:03:22.696Z,21.8
2022-08-31T18:09:11.467Z,21.7
2022-08-31T18:14:57.681Z,21.5
2022-08-31T18:20:38.214Z,21.4
2022-08-31T18:26:21.112Z,21.1
2022-08-31T18:32:01.461Z,21
2022-08-31T18:37:41.967Z,20.9
2022-08-31T18:43:22.681Z,20.9
2022-08-31T18:49:12.817Z,20.9
2022-08-31T18:55:01.270Z,21.1
2022-08-31T19:00:41.553Z,21
2022-08-31T19:06:23.158Z,21
2022-08-31T19:12:09.479Z,21
2022-08-31T19:17:50.163Z,20.9
2022-08-31T19:23:30.422Z,20.7
2022-08-31T19:29:10.797Z,20.5
2022-08-31T19:34:51.459Z,20.4
2022-08-31T19:40:39.374Z,20.4
2022-08-31T19:46:20.962Z,20.3
2022-08-31T19:52:03.694Z,20.4
2022-08-31T19:57:45.246Z,20.3
2022-08-31T20:03:26.223Z,20.3
2022-08-31T20:09:06.747Z,20.3
2022-08-31T20:14:47.022Z,20.1
2022-08-31T20:20:27.375Z,19.9
2022-08-31T20:26:08.012Z,19.8
2022-08-31T20:31:48.321Z,19.6
2022-08-31T20:37:30.128Z,19.4
2022-08-31T20:43:11.265Z,19.3
2022-08-31T20:48:52.040Z,19.1
2022-08-31T20:54:34.015Z,19
2022-08-31T21:00:14.590Z,18.7
2022-08-31T21:05:54.872Z,18.5
2022-08-31T21:11:35.035Z,18.4
2022-08-31T21:17:15.137Z,18.3
2022-08-31T21:22:55.740Z,18.2
2022-08-31T21:28:36.050Z,18.1
2022-08-31T21:34:21.190Z,18
2022-08-31T21:40:05.536Z,18
2022-08-31T21:45:46.824Z,18
2022-08-31T21:51:27.649Z,17.7
2022-08-31T21:57:08.764Z,17.6
2022-08-31T22:02:49.692Z,17.6
2022-08-31T22:08:31.191Z,17.5
2022-08-31T22:14:12.176Z,17.4
2022-08-31T22:19:52.504Z,17.3
2022-08-31T22:25:33.400Z,17.1
2022-08-31T22:31:14.168Z,16.9
2022-08-31T22:36:56.368Z,16.8
2022-08-31T22:42:36.908Z,16.6
2022-08-31T22:48:17.887Z,16.5
2022-08-31T22:53:59.650Z,16.3
2022-08-31T22:59:39.819Z,16.1
2022-08-31T23:05:19.973Z,15.9
2022-08-31T23:11:00.311Z,15.7
2022-08-31T23:16:41.080Z,15.7
2022-08-31T23:22:21.987Z,15.7
2022-08-31T23:28:05.210Z,15.7
2022-08-31T23:33:46.821Z,15.6
2022-08-31T23:39:27.215Z,15.6
2022-08-31T23:45:07.652Z,15.5
2022-08-31T23:50:47.626Z,15.4
2022-08-31T23:56:27.867Z,15.2
